• Join FlightAware (Why Join?)
  • Login
  • US Flag 
07:29PM EDT


 

Airport Tracker/Info


-or-


 

Live Flight TrackerFlight Track Log ✈ AAL1805 ✈ 06-May-2013 ✈ KMIA - TNCA / AUA

Flight Track Log - Related Links

Times and Time Zones

All times are in EDT time to prevent confusion due to time zone crossing. See the AAL1805 flight status page for this flight to view local times or setup timezone preferences in your user account.

Time Position Orientation Groundspeed Altitude Reporting Facility
EDT Latitude Longitude Course Direction KTS MPH feet Rate Location/Type
07:21PM 25.7789 -80.2000 145° Southeast 239 275 2,600  Level Miami Center
07:22PM 25.5067 -80.0407 153° Southeast  Level Estimated
07:22PM 25.6992 -80.1219 139° Southeast 265 305 6,400  Level Miami Center
07:23PM 25.4103 -79.9578 146° Southeast  Level Estimated
07:24PM 25.5792 -80.0192 153° Southeast  Level Estimated
07:24PM 25.3140 -79.8750 150° Southeast  Level Estimated
07:24PM 25.5408 -80.1106 153° Southeast 276 318 8,300  Level Miami Center
07:25PM 25.1921 -79.8812 183° South  Level FlightAware Approximate
07:25PM 25.4644 -80.0694 154° Southeast 292 336 11,400  Level Miami Center
07:26PM 25.0961 -79.7981 145° Southeast  Level Estimated
07:26PM 25.3775 -80.0281 157° South 303 349 13,300  Level Miami Center
07:28PM 25.2551 -79.9490 150° Southeast  Level FlightAware Approximate
07:28PM 25.1939 -79.9153 150° Southeast 364 419 17,600  Level Miami Center
07:29PM 25.0992 -79.8442 146° Southeast 399 459 20,000 2,100 Climbing Miami Center
07:30PM 25.0003 -79.7753 148° Southeast 415 478 21,800 1,740 Climbing Miami Center
07:31PM 24.8931 -79.7019 148° Southeast 435 501 23,500 1,860 Climbing Miami Center
07:32PM 24.7881 -79.6217 145° Southeast 452 520 25,600 1,920 Climbing Miami Center
07:33PM 24.6789 -79.5458 148° Southeast 457 526 27,400 1,500 Climbing Miami Center
07:35PM 24.5534 -79.4522 149° Southeast  Level FlightAware Approximate
07:36PM 24.3444 -79.3108 142° Southeast 479 551 31,700  Level Miami Center
07:38PM 24.2272 -79.2094 142° Southeast  Level Estimated
07:38PM 24.1211 -79.1561 142° Southeast 479 551 34,400  Level Miami Center
07:40PM 23.9980 -79.0649 142° Southeast  Level FlightAware Approximate
07:42PM 23.8501 -78.9374 142° Southeast  Level FlightAware Approximate
07:47PM 23.3315 -78.4932 142° Southeast  Level FlightAware Approximate
07:48PM 23.2362 -78.4120 142° Southeast  Level FlightAware Approximate
07:49PM 23.1407 -78.3309 142° Southeast  Level FlightAware Approximate
07:50PM 23.0453 -78.2499 142° Southeast  Level FlightAware Approximate
07:51PM 22.9498 -78.1691 142° Southeast  Level FlightAware Approximate
07:52PM 22.8542 -78.0883 142° Southeast  Level FlightAware Approximate
07:53PM 22.7587 -78.0077 142° Southeast  Level FlightAware Approximate
07:54PM 22.6630 -77.9272 142° Southeast  Level FlightAware Approximate
07:55PM 22.5674 -77.8467 142° Southeast  Level FlightAware Approximate
07:56PM 22.4716 -77.7664 142° Southeast  Level FlightAware Approximate
07:57PM 22.3759 -77.6863 142° Southeast  Level FlightAware Approximate
07:58PM 22.2801 -77.6062 142° Southeast  Level FlightAware Approximate
07:59PM 22.1843 -77.5262 142° Southeast  Level FlightAware Approximate
08:00PM 22.0884 -77.4464 142° Southeast  Level FlightAware Approximate
08:01PM 21.9925 -77.3666 142° Southeast  Level FlightAware Approximate
08:02PM 21.8966 -77.2870 142° Southeast  Level FlightAware Approximate
08:03PM 21.8006 -77.2075 142° Southeast  Level FlightAware Approximate
08:04PM 21.7046 -77.1280 142° Southeast  Level FlightAware Approximate
08:05PM 21.6086 -77.0487 142° Southeast  Level FlightAware Approximate
08:06PM 21.5125 -76.9695 143° Southeast  Level FlightAware Approximate
08:07PM 21.4163 -76.8904 143° Southeast  Level FlightAware Approximate
08:08PM 21.3202 -76.8114 143° Southeast  Level FlightAware Approximate
08:09PM 21.2240 -76.7325 143° Southeast  Level FlightAware Approximate
08:10PM 21.1277 -76.6537 143° Southeast  Level FlightAware Approximate
08:11PM 21.0315 -76.5750 143° Southeast  Level FlightAware Approximate
08:12PM 20.9351 -76.4964 143° Southeast  Level FlightAware Approximate
08:13PM 20.8388 -76.4179 143° Southeast  Level FlightAware Approximate
08:14PM 20.7424 -76.3395 143° Southeast  Level FlightAware Approximate
08:15PM 20.6460 -76.2612 143° Southeast  Level FlightAware Approximate
08:16PM 20.5495 -76.1830 143° Southeast  Level FlightAware Approximate
08:17PM 20.4531 -76.1049 143° Southeast  Level FlightAware Approximate
08:18PM 20.3565 -76.0269 143° Southeast  Level FlightAware Approximate
08:19PM 20.2600 -75.9490 143° Southeast  Level FlightAware Approximate
08:20PM 20.1634 -75.8712 143° Southeast  Level FlightAware Approximate
08:21PM 20.0667 -75.7935 143° Southeast  Level FlightAware Approximate
08:22PM 19.9701 -75.7159 143° Southeast  Level FlightAware Approximate
08:23PM 19.8734 -75.6384 143° Southeast  Level FlightAware Approximate
08:24PM 19.7767 -75.5610 143° Southeast  Level FlightAware Approximate
08:25PM 19.6799 -75.4836 143° Southeast  Level FlightAware Approximate
08:26PM 19.5831 -75.4064 143° Southeast  Level FlightAware Approximate
08:27PM 19.4863 -75.3292 143° Southeast  Level FlightAware Approximate
08:28PM 19.3894 -75.2522 143° Southeast  Level FlightAware Approximate
08:29PM 19.2925 -75.1752 143° Southeast  Level FlightAware Approximate
08:30PM 19.1956 -75.0984 143° Southeast  Level FlightAware Approximate
08:31PM 19.0987 -75.0216 143° Southeast  Level FlightAware Approximate
08:32PM 19.0024 -74.9455 143° Southeast  Level FlightAware Approximate
08:33PM 18.9061 -74.8694 143° Southeast  Level FlightAware Approximate
08:34PM 18.8097 -74.7935 143° Southeast  Level FlightAware Approximate
08:35PM 18.7133 -74.7176 143° Southeast  Level FlightAware Approximate
08:36PM 18.6168 -74.6421 143° Southeast  Level FlightAware Approximate
08:37PM 18.5202 -74.5666 143° Southeast  Level FlightAware Approximate
08:38PM 18.4236 -74.4911 143° Southeast  Level FlightAware Approximate
08:39PM 18.3270 -74.4158 143° Southeast  Level FlightAware Approximate
08:40PM 18.2303 -74.3405 144° Southeast  Level FlightAware Approximate
08:41PM 18.1336 -74.2654 144° Southeast  Level FlightAware Approximate
08:42PM 18.0369 -74.1903 144° Southeast  Level FlightAware Approximate
08:43PM 17.9402 -74.1153 144° Southeast  Level FlightAware Approximate
08:44PM 17.8434 -74.0404 144° Southeast  Level FlightAware Approximate
08:45PM 17.7466 -73.9655 144° Southeast  Level FlightAware Approximate
08:46PM 17.6502 -73.8902 143° Southeast  Level FlightAware Approximate
08:47PM 17.5547 -73.8137 143° Southeast  Level FlightAware Approximate
08:48PM 17.4591 -73.7373 143° Southeast  Level FlightAware Approximate
08:49PM 17.3635 -73.6609 143° Southeast  Level FlightAware Approximate
08:50PM 17.2678 -73.5847 143° Southeast  Level FlightAware Approximate
08:51PM 17.1721 -73.5085 143° Southeast  Level FlightAware Approximate
08:52PM 17.0764 -73.4324 143° Southeast  Level FlightAware Approximate
08:53PM 16.9800 -73.3558 143° Southeast  Level FlightAware Approximate
08:54PM 16.8835 -73.2793 143° Southeast  Level FlightAware Approximate
08:55PM 16.7870 -73.2029 143° Southeast  Level FlightAware Approximate
08:56PM 16.6893 -73.1282 144° Southeast  Level FlightAware Approximate
08:57PM 16.5916 -73.0536 144° Southeast  Level FlightAware Approximate
08:58PM 16.4938 -72.9791 144° Southeast  Level FlightAware Approximate
08:59PM 16.3960 -72.9047 144° Southeast  Level FlightAware Approximate
09:00PM 16.2981 -72.8304 144° Southeast  Level FlightAware Approximate
09:01PM 16.2003 -72.7561 144° Southeast  Level FlightAware Approximate
09:02PM 16.1024 -72.6819 144° Southeast  Level FlightAware Approximate
09:03PM 16.0045 -72.6078 144° Southeast  Level FlightAware Approximate
09:04PM 15.9066 -72.5337 144° Southeast  Level FlightAware Approximate
09:05PM 15.8086 -72.4597 144° Southeast  Level FlightAware Approximate
09:06PM 15.7106 -72.3858 144° Southeast  Level FlightAware Approximate
09:07PM 15.6126 -72.3120 144° Southeast  Level FlightAware Approximate
09:08PM 15.5146 -72.2382 144° Southeast  Level FlightAware Approximate
09:09PM 15.4165 -72.1645 144° Southeast  Level FlightAware Approximate
09:10PM 15.3184 -72.0909 144° Southeast  Level FlightAware Approximate
09:11PM 15.2203 -72.0173 144° Southeast  Level FlightAware Approximate
09:12PM 15.1222 -71.9438 144° Southeast  Level FlightAware Approximate
09:13PM 15.0240 -71.8704 144° Southeast  Level FlightAware Approximate
09:14PM 14.9258 -71.7971 144° Southeast  Level FlightAware Approximate
09:15PM 14.8276 -71.7238 144° Southeast  Level FlightAware Approximate
09:16PM 14.7294 -71.6506 144° Southeast  Level FlightAware Approximate
09:17PM 14.6311 -71.5774 144° Southeast  Level FlightAware Approximate
09:18PM 14.5342 -71.5025 143° Southeast  Level FlightAware Approximate
09:19PM 14.4368 -71.4282 145° Southeast  Level FlightAware Approximate
09:20PM 14.3378 -71.3562 145° Southeast  Level FlightAware Approximate
09:21PM 14.2389 -71.2842 145° Southeast  Level FlightAware Approximate
09:22PM 14.1399 -71.2123 145° Southeast  Level FlightAware Approximate
09:23PM 14.0349 -71.1508 154° Southeast  Level FlightAware Approximate
09:24PM 13.9416 -71.0714 140° Southeast  Level FlightAware Approximate
09:25PM 13.8409 -71.0026 149° Southeast  Level FlightAware Approximate
09:26PM 13.7406 -70.9331 143° Southeast  Level FlightAware Approximate
09:27PM 13.6444 -70.8574 143° Southeast  Level FlightAware Approximate
09:28PM 13.5481 -70.7819 144° Southeast  Level FlightAware Approximate
09:29PM 13.4503 -70.7084 144° Southeast  Level FlightAware Approximate
09:30PM 13.3525 -70.6350 144° Southeast  Level FlightAware Approximate
09:31PM 13.2547 -70.5617 144° Southeast  Level FlightAware Approximate
09:32PM 13.1568 -70.4884 144° Southeast  Level FlightAware Approximate
09:33PM 13.0556 -70.4204 147° Southeast  Level FlightAware Approximate
09:34PM 12.9568 -70.3487 142° Southeast  Level FlightAware Approximate
09:35PM 12.8613 -70.2723 142° Southeast  Level FlightAware Approximate
09:36PM 12.7642 -70.1981 144° Southeast  Level FlightAware Approximate
09:37PM 12.6652 -70.1268 147° Southeast  Level FlightAware Approximate
09:38PM 12.5690 -70.0518 144° Southeast  Level FlightAware Approximate
09:39PM 12.5000 -70.0167 154° Southeast  Level FlightAware Approximate
09:40PM 12.5014 -70.0152 154° Southeast  Level Estimated
09:41PM 12.5000 -70.0167 154° Southeast  Level FlightAware Approximate